Time;durP1;ratioP1;P1;durP2;ratioP2;P2;SDS_P1;SDS_P2;PMS_P1;PMS_P2;Temp;Humidity;BMP_temperature;BMP_pressure;BME280_temperature;BME280_humidity;BME280_pressure;Samples;Min_cycle;Max_cycle;Signal;HPM_P1;HPM_P2
2023/05/07 00:01:29;;;;;;;;;;;;;;;12.27;81.44;99064.34;5028834;28;20486;-79
2023/05/07 00:03:54;;;;;;;;;;;;;;;12.22;80.35;99058.94;5023388;28;21823;-79
2023/05/07 00:06:19;;;;;;;;;;;;;;;11.62;82.78;99059.09;5030545;28;19921;-79
2023/05/07 00:08:45;;;;;;;;;;;;;;;11.57;83.04;99053.69;5049441;28;19932;-79
2023/05/07 00:11:10;;;;;;;;;;;;;;;11.51;83.24;99052.00;5032812;28;19928;-79
2023/05/07 00:13:35;;;;;;;;;;;;;;;11.35;83.55;99052.88;5044490;28;19966;-79
2023/05/07 00:16:01;;;;;;;;;;;;;;;12.02;81.84;99056.88;5046385;28;19921;-79
2023/05/07 00:18:27;;;;;;;;;;;;;;;12.01;81.26;99055.28;5030380;28;19932;-79
2023/05/07 00:20:52;;;;;;;;;;;;;;;11.51;83.45;99044.78;5050805;28;19924;-79
2023/05/07 00:23:17;;;;;;;;;;;;;;;11.51;83.12;99044.78;5044270;28;19928;-79
2023/05/07 00:25:42;;;;;;;;;;;;;;;11.44;83.93;99051.38;5046335;28;19974;-79
2023/05/07 00:28:08;;;;;;;;;;;;;;;11.08;85.27;99045.56;5050230;28;19924;-79
2023/05/07 00:30:33;;;;;;;;;;;;;;;11.03;85.60;99050.84;5050604;28;19936;-79
2023/05/07 00:32:58;;;;;;;;;;;;;;;10.99;86.12;99057.72;5029245;28;19928;-79
2023/05/07 00:35:23;;;;;;;;;;;;;;;10.91;86.35;99052.00;5028340;28;19929;-79
2023/05/07 00:37:49;;;;;;;;;;;;;;;11.29;85.92;99052.00;5041971;28;20327;-79
2023/05/07 00:40:14;;;;;;;;;;;;;;;11.33;85.00;99048.56;5026240;28;20351;-79
2023/05/07 00:42:40;;;;;;;;;;;;;;;11.28;85.52;99042.34;5011616;28;19979;-79
2023/05/07 00:45:07;;;;;;;;;;;;;;;11.10;86.06;99048.00;5048393;28;20288;-79
2023/05/07 00:47:33;;;;;;;;;;;;;;;10.97;86.03;99043.81;5031214;28;19921;-79
2023/05/07 00:49:58;;;;;;;;;;;;;;;11.05;85.60;99048.72;5048007;28;19951;-79
2023/05/07 00:52:25;;;;;;;;;;;;;;;11.21;85.24;99060.44;5049126;28;20404;-79
2023/05/07 00:54:51;;;;;;;;;;;;;;;11.23;84.89;99052.97;5030294;28;19962;-79
2023/05/07 00:57:16;;;;;;;;;;;;;;;11.03;86.53;99050.06;5030906;28;20322;-79
2023/05/07 00:59:41;;;;;;;;;;;;;;;11.38;84.95;99053.16;5022370;28;19929;-79
2023/05/07 01:02:07;;;;;;;;;;;;;;;11.31;84.33;99053.34;5031984;28;19917;-79
2023/05/07 01:04:32;;;;;;;;;;;;;;;11.03;85.43;99047.38;5034156;28;19928;-79
2023/05/07 01:06:58;;;;;;;;;;;;;;;10.95;86.83;99034.44;5048840;28;20388;-79
2023/05/07 01:09:25;;;;;;;;;;;;;;;11.09;86.10;99043.72;5048134;28;19928;-80
2023/05/07 01:11:51;;;;;;;;;;;;;;;11.44;84.27;99044.19;5047250;28;20326;-79
2023/05/07 01:14:16;;;;;;;;;;;;;;;11.61;83.08;99039.56;5025031;28;19920;-80
2023/05/07 01:16:42;;;;;;;;;;;;;;;11.16;85.32;99045.13;5050803;28;20004;-79
2023/05/07 01:19:08;;;;;;;;;;;;;;;10.98;86.38;99039.28;5030812;28;19931;-79
2023/05/07 01:21:34;;;;;;;;;;;;;;;10.95;86.19;99029.91;5049095;28;19917;-79
2023/05/07 01:24:00;;;;;;;;;;;;;;;10.91;86.33;99050.16;5043022;28;19940;-79
2023/05/07 01:26:25;;;;;;;;;;;;;;;10.88;87.01;99039.94;5043898;28;20395;-79
2023/05/07 01:28:51;;;;;;;;;;;;;;;10.95;86.88;99037.91;5031201;28;20473;-79
2023/05/07 01:31:16;;;;;;;;;;;;;;;11.28;84.86;99037.81;5049407;28;19916;-79
2023/05/07 01:33:42;;;;;;;;;;;;;;;10.98;86.12;99041.97;5028320;28;19925;-79
2023/05/07 01:36:08;;;;;;;;;;;;;;;11.21;85.00;99039.06;5047879;28;19956;-79
2023/05/07 01:38:35;;;;;;;;;;;;;;;11.13;84.84;99037.63;5029489;28;19956;-79
2023/05/07 01:41:01;;;;;;;;;;;;;;;11.00;85.20;99037.19;5046613;28;19924;-79
2023/05/07 01:43:26;;;;;;;;;;;;;;;11.26;85.28;99037.28;5045006;28;19921;-79
2023/05/07 01:45:52;;;;;;;;;;;;;;;11.11;84.35;99044.28;5029731;28;19916;-79
2023/05/07 01:48:18;;;;;;;;;;;;;;;11.12;84.58;99049.38;5028532;28;19935;-79
2023/05/07 01:50:44;;;;;;;;;;;;;;;11.68;82.97;99048.25;5031490;28;20435;-79
2023/05/07 01:53:09;;;;;;;;;;;;;;;11.85;81.88;99050.81;5041326;28;19924;-79
2023/05/07 01:55:36;;;;;;;;;;;;;;;11.07;83.56;99043.16;5046408;28;19917;-79
2023/05/07 01:58:01;;;;;;;;;;;;;;;11.04;84.26;99043.63;5012898;28;20456;-79
2023/05/07 02:00:27;;;;;;;;;;;;;;;11.03;83.74;99050.84;5043440;28;20051;-79
2023/05/07 02:02:53;;;;;;;;;;;;;;;11.42;82.61;99056.97;5030566;28;19925;-79
2023/05/07 02:05:18;;;;;;;;;;;;;;;11.51;82.54;99052.00;5034795;28;20323;-79
2023/05/07 02:07:43;;;;;;;;;;;;;;;11.73;81.59;99056.28;5025049;28;19921;-79
2023/05/07 02:10:09;;;;;;;;;;;;;;;12.37;78.44;99062.56;5031028;28;19925;-79
2023/05/07 02:12:34;;;;;;;;;;;;;;;11.39;81.15;99056.66;5031712;28;19948;-79
2023/05/07 02:14:59;;;;;;;;;;;;;;;11.05;83.56;99062.06;5047383;28;19927;-79
2023/05/07 02:17:25;;;;;;;;;;;;;;;11.73;80.44;99067.00;5031371;28;19925;-79
2023/05/07 02:19:50;;;;;;;;;;;;;;;11.64;81.64;99063.09;5035692;28;20295;-79
2023/05/07 02:22:16;;;;;;;;;;;;;;;11.31;82.70;99066.72;5031812;28;19921;-79
2023/05/07 02:24:41;;;;;;;;;;;;;;;11.09;83.72;99078.44;5033248;28;19935;-79
2023/05/07 02:27:06;;;;;;;;;;;;;;;10.66;85.45;99073.78;5030738;28;20304;-79
2023/05/07 02:29:32;;;;;;;;;;;;;;;10.80;84.88;99074.25;5029481;28;19982;-79
2023/05/07 02:31:57;;;;;;;;;;;;;;;10.53;85.35;99074.91;5017957;28;19929;-79
2023/05/07 02:34:22;;;;;;;;;;;;;;;10.23;85.87;99071.75;5050248;28;19928;-79
2023/05/07 02:36:47;;;;;;;;;;;;;;;10.40;85.33;99069.91;5048609;28;19925;-79
2023/05/07 02:39:13;;;;;;;;;;;;;;;10.27;85.78;99074.72;5047844;28;20040;-79
2023/05/07 02:41:38;;;;;;;;;;;;;;;10.18;85.14;99079.66;5029863;28;20110;-79
2023/05/07 02:44:03;;;;;;;;;;;;;;;10.25;85.30;99085.66;5028810;28;21439;-79
2023/05/07 02:46:29;;;;;;;;;;;;;;;9.98;86.54;99079.25;5017245;28;20334;-79
2023/05/07 02:48:54;;;;;;;;;;;;;;;10.09;86.20;99082.94;5033584;28;19921;-79
2023/05/07 02:51:20;;;;;;;;;;;;;;;10.14;84.44;99080.38;5014880;28;19982;-79
2023/05/07 02:53:46;;;;;;;;;;;;;;;10.16;84.96;99073.75;5036149;28;19931;-79
2023/05/07 02:56:11;;;;;;;;;;;;;;;10.40;85.28;99079.75;5031327;28;19917;-79
2023/05/07 02:58:36;;;;;;;;;;;;;;;10.30;83.97;99084.94;5028246;28;20774;-79
2023/05/07 03:01:01;;;;;;;;;;;;;;;10.46;82.95;99084.94;5026272;28;20055;-79
2023/05/07 03:03:27;;;;;;;;;;;;;;;10.94;82.85;99072.88;5047041;28;19963;-79
2023/05/07 03:05:52;;;;;;;;;;;;;;;10.67;83.30;99079.94;5033634;28;19921;-79
2023/05/07 03:08:17;;;;;;;;;;;;;;;10.31;83.62;99079.34;5034607;28;19920;-79
2023/05/07 03:10:42;;;;;;;;;;;;;;;10.78;82.76;99073.69;5010728;28;19948;-79
2023/05/07 03:13:08;;;;;;;;;;;;;;;10.48;83.28;99079.38;5032706;28;19928;-79
2023/05/07 03:15:33;;;;;;;;;;;;;;;9.87;85.32;99079.31;5045840;28;19959;-79
2023/05/07 03:17:58;;;;;;;;;;;;;;;10.22;84.31;99078.13;5014627;28;19956;-79
2023/05/07 03:20:24;;;;;;;;;;;;;;;9.89;86.21;99077.22;5036419;28;19933;-79
2023/05/07 03:22:49;;;;;;;;;;;;;;;10.10;85.58;99065.84;5052081;28;19920;-79
2023/05/07 03:25:14;;;;;;;;;;;;;;;10.03;85.87;99075.84;5029305;28;19966;-79
2023/05/07 03:27:41;;;;;;;;;;;;;;;10.44;84.76;99064.91;5049628;28;19935;-79
2023/05/07 03:30:07;;;;;;;;;;;;;;;10.84;82.69;99070.84;5029677;28;19921;-79
2023/05/07 03:32:32;;;;;;;;;;;;;;;10.16;84.77;99076.41;5050624;28;19935;-79
2023/05/07 03:34:58;;;;;;;;;;;;;;;10.12;85.91;99087.78;5030829;28;19924;-79
2023/05/07 03:37:23;;;;;;;;;;;;;;;10.25;84.72;99082.16;5049021;28;20384;-79
2023/05/07 03:39:48;;;;;;;;;;;;;;;10.51;83.96;99084.22;5031448;28;20019;-79
2023/05/07 03:42:14;;;;;;;;;;;;;;;10.74;82.97;99088.59;5048626;28;19925;-79
2023/05/07 03:44:40;;;;;;;;;;;;;;;10.24;83.97;99088.56;5054936;28;20338;-79
2023/05/07 03:47:05;;;;;;;;;;;;;;;10.63;84.40;99087.63;5044092;28;20015;-79
2023/05/07 03:49:30;;;;;;;;;;;;;;;10.40;83.79;99091.25;5049489;28;19920;-80
2023/05/07 03:51:56;;;;;;;;;;;;;;;9.91;87.06;99083.94;5034860;28;20015;-79
2023/05/07 03:54:21;;;;;;;;;;;;;;;9.87;86.74;99089.97;5048989;28;19963;-78
2023/05/07 03:56:46;;;;;;;;;;;;;;;10.03;86.02;99099.84;5048551;28;19928;-79
2023/05/07 03:59:12;;;;;;;;;;;;;;;10.23;85.20;99100.25;5033126;28;20016;-79
2023/05/07 04:01:38;;;;;;;;;;;;;;;9.62;88.50;99099.09;5047881;28;19932;-79
2023/05/07 04:04:04;;;;;;;;;;;;;;;9.61;88.93;99110.00;5048749;28;20361;-79
2023/05/07 04:06:29;;;;;;;;;;;;;;;9.58;89.37;99105.13;5027362;28;20697;-79
2023/05/07 04:08:54;;;;;;;;;;;;;;;9.87;88.75;99112.13;5026743;28;20344;-80
2023/05/07 04:11:20;;;;;;;;;;;;;;;9.89;87.58;99114.53;5015089;28;19925;-79
2023/05/07 04:13:45;;;;;;;;;;;;;;;9.53;89.18;99126.31;5030881;28;20094;-79
2023/05/07 04:16:10;;;;;;;;;;;;;;;9.66;89.16;99132.22;5028496;28;20388;-79
2023/05/07 04:18:36;;;;;;;;;;;;;;;9.41;90.00;99117.56;5046691;28;19916;-79
2023/05/07 04:21:01;;;;;;;;;;;;;;;9.49;89.47;99126.00;5032405;28;20365;-79
2023/05/07 04:23:26;;;;;;;;;;;;;;;9.34;89.87;99123.00;5041216;28;21916;-79
2023/05/07 04:25:52;;;;;;;;;;;;;;;9.54;89.93;99125.28;5032760;28;19927;-79
2023/05/07 04:28:17;;;;;;;;;;;;;;;9.62;89.90;99130.25;5049303;28;19928;-79
2023/05/07 04:30:42;;;;;;;;;;;;;;;9.43;89.72;99123.47;5043658;28;19925;-79
2023/05/07 04:33:08;;;;;;;;;;;;;;;9.57;89.28;99138.94;5034168;28;19916;-79
2023/05/07 04:35:33;;;;;;;;;;;;;;;10.29;86.43;99134.81;5044374;28;19929;-79
2023/05/07 04:37:58;;;;;;;;;;;;;;;9.91;87.22;99133.78;5044009;28;19972;-79
2023/05/07 04:40:23;;;;;;;;;;;;;;;9.79;88.24;99126.63;5028527;28;19929;-79
2023/05/07 04:42:49;;;;;;;;;;;;;;;9.43;89.18;99131.44;5023189;28;19921;-79
2023/05/07 04:45:15;;;;;;;;;;;;;;;9.59;88.45;99133.38;5032214;28;20011;-79
2023/05/07 04:47:40;;;;;;;;;;;;;;;9.80;87.59;99143.44;5026778;28;20404;-80
2023/05/07 04:50:06;;;;;;;;;;;;;;;9.52;89.50;99132.72;5033415;28;19929;-79
2023/05/07 04:52:31;;;;;;;;;;;;;;;9.46;90.14;99130.97;5045773;28;19916;-79
2023/05/07 04:54:59;;;;;;;;;;;;;;;9.52;90.06;99130.06;5028755;28;19952;-79
2023/05/07 04:57:24;;;;;;;;;;;;;;;9.79;88.70;99136.47;5025567;28;20750;-79
2023/05/07 04:59:49;;;;;;;;;;;;;;;9.55;89.12;99133.03;5048026;28;19932;-79
2023/05/07 05:02:15;;;;;;;;;;;;;;;9.53;89.31;99135.13;5047525;28;20019;-79
2023/05/07 05:04:41;;;;;;;;;;;;;;;9.83;88.03;99133.09;5048053;28;19959;-79
2023/05/07 05:07:06;;;;;;;;;;;;;;;9.61;88.59;99139.31;5046031;28;20015;-79
2023/05/07 05:09:31;;;;;;;;;;;;;;;10.04;87.71;99150.31;5023748;28;19921;-79
2023/05/07 05:11:57;;;;;;;;;;;;;;;9.76;88.42;99142.28;5009858;28;20356;-79
2023/05/07 05:14:22;;;;;;;;;;;;;;;9.55;89.79;99141.03;5027665;28;20662;-79
2023/05/07 05:16:47;;;;;;;;;;;;;;;9.51;90.26;99142.56;5029205;28;19971;-79
2023/05/07 05:19:12;;;;;;;;;;;;;;;10.06;88.13;99137.53;5023169;28;19928;-79
2023/05/07 05:21:38;;;;;;;;;;;;;;;9.44;89.93;99141.03;5027054;28;19925;-80
2023/05/07 05:24:03;;;;;;;;;;;;;;;9.31;90.53;99151.94;5027263;28;20015;-79
2023/05/07 05:26:28;;;;;;;;;;;;;;;10.09;87.16;99153.06;5047368;28;19923;-79
2023/05/07 05:28:53;;;;;;;;;;;;;;;10.35;86.22;99155.19;5014712;28;20019;-79
2023/05/07 05:31:19;;;;;;;;;;;;;;;10.18;86.27;99164.19;5048453;28;19960;-79
2023/05/07 05:33:44;;;;;;;;;;;;;;;9.99;87.86;99166.19;5027513;28;19966;-79
2023/05/07 05:36:10;;;;;;;;;;;;;;;9.79;87.74;99160.44;5011185;28;19921;-79
2023/05/07 05:38:35;;;;;;;;;;;;;;;9.44;89.28;99165.84;5030189;28;19959;-79
2023/05/07 05:41:00;;;;;;;;;;;;;;;9.42;89.70;99167.13;5039116;28;19999;-79
2023/05/07 05:43:26;;;;;;;;;;;;;;;9.45;90.94;99162.16;5042182;28;20338;-79
2023/05/07 05:45:51;;;;;;;;;;;;;;;9.47;89.80;99153.91;5030542;28;20547;-79
2023/05/07 05:48:16;;;;;;;;;;;;;;;10.14;87.03;99168.38;5027102;28;19917;-79
2023/05/07 05:50:41;;;;;;;;;;;;;;;9.49;88.74;99160.63;5026341;28;19920;-79
2023/05/07 05:53:07;;;;;;;;;;;;;;;10.06;88.11;99166.88;5031818;28;19921;-79
2023/05/07 05:55:32;;;;;;;;;;;;;;;9.99;86.58;99168.06;5050867;28;20372;-79
2023/05/07 05:57:58;;;;;;;;;;;;;;;9.58;88.82;99163.75;5036617;28;19932;-79
2023/05/07 06:00:23;;;;;;;;;;;;;;;9.14;90.07;99175.00;5015993;28;19929;-79
2023/05/07 06:02:48;;;;;;;;;;;;;;;9.70;88.51;99178.66;5044602;28;19921;-79
2023/05/07 06:05:14;;;;;;;;;;;;;;;9.61;89.25;99180.06;5007009;28;19971;-79
2023/05/07 06:07:39;;;;;;;;;;;;;;;9.59;89.04;99176.81;5011557;28;20302;-79
2023/05/07 06:10:05;;;;;;;;;;;;;;;9.92;86.88;99170.84;5027396;28;20345;-79
2023/05/07 06:12:31;;;;;;;;;;;;;;;9.19;90.05;99169.78;5032313;28;19997;-79
2023/05/07 06:14:56;;;;;;;;;;;;;;;9.49;89.67;99173.13;5027404;28;19990;-79
2023/05/07 06:17:21;;;;;;;;;;;;;;;9.31;89.74;99174.06;5027597;28;20340;-79
2023/05/07 06:19:46;;;;;;;;;;;;;;;9.20;90.07;99172.22;5027835;28;20307;-79
2023/05/07 06:22:12;;;;;;;;;;;;;;;9.86;89.09;99177.13;5027893;28;19944;-79
2023/05/07 06:24:37;;;;;;;;;;;;;;;9.77;88.28;99175.88;5029144;28;19921;-80
2023/05/07 06:27:02;;;;;;;;;;;;;;;9.70;87.83;99180.50;5013154;28;19968;-79
2023/05/07 06:29:30;;;;;;;;;;;;;;;9.40;89.55;99180.69;5030976;28;19931;-79
2023/05/07 06:31:55;;;;;;;;;;;;;;;9.61;89.11;99182.72;5032084;28;19940;-79
2023/05/07 06:34:20;;;;;;;;;;;;;;;9.73;89.32;99177.41;5031175;28;19967;-79
2023/05/07 06:36:46;;;;;;;;;;;;;;;10.08;86.85;99171.97;5029014;28;19929;-79
2023/05/07 06:39:11;;;;;;;;;;;;;;;10.07;86.87;99179.16;5046326;28;19925;-79
2023/05/07 06:41:36;;;;;;;;;;;;;;;9.64;87.66;99181.47;5049885;28;20000;-79
2023/05/07 06:44:02;;;;;;;;;;;;;;;9.61;89.52;99182.72;5028255;28;19952;-79
2023/05/07 06:46:27;;;;;;;;;;;;;;;9.50;89.61;99186.22;5006568;28;19925;-79
2023/05/07 06:48:53;;;;;;;;;;;;;;;9.60;88.88;99189.13;5030022;28;20296;-79
2023/05/07 06:51:18;;;;;;;;;;;;;;;9.51;89.69;99187.03;5047281;28;19922;-79
2023/05/07 06:53:43;;;;;;;;;;;;;;;9.92;88.00;99189.50;5046728;28;19925;-79
2023/05/07 06:56:08;;;;;;;;;;;;;;;9.31;89.77;99189.22;5024695;28;20015;-79
2023/05/07 06:58:34;;;;;;;;;;;;;;;9.55;89.90;99194.34;5032232;28;19920;-79
2023/05/07 07:00:59;;;;;;;;;;;;;;;9.80;89.32;99186.91;5049267;28;19932;-79
2023/05/07 07:03:25;;;;;;;;;;;;;;;9.54;89.21;99191.91;5045526;28;19936;-79
2023/05/07 07:05:54;;;;;;;;;;;;;;;9.26;90.82;99199.78;5029766;28;19936;-79
2023/05/07 07:08:21;;;;;;;;;;;;;;;9.58;89.24;99204.53;5045232;28;20395;-76
2023/05/07 07:10:46;;;;;;;;;;;;;;;9.30;90.13;99201.75;5048280;28;19990;-77
2023/05/07 07:13:12;;;;;;;;;;;;;;;9.60;89.68;99204.28;5033832;28;20330;-77
2023/05/07 07:15:37;;;;;;;;;;;;;;;9.54;89.92;99205.22;5016350;28;19924;-76
2023/05/07 07:18:02;;;;;;;;;;;;;;;9.47;89.60;99204.53;5011711;28;20786;-76
2023/05/07 07:20:27;;;;;;;;;;;;;;;9.78;89.08;99209.50;5047085;28;20023;-76
2023/05/07 07:22:53;;;;;;;;;;;;;;;9.78;88.08;99212.16;5031469;28;19921;-76
2023/05/07 07:25:18;;;;;;;;;;;;;;;9.70;88.96;99209.84;5051353;28;19925;-76
2023/05/07 07:27:43;;;;;;;;;;;;;;;9.34;89.88;99213.56;5053208;28;19924;-76
2023/05/07 07:30:09;;;;;;;;;;;;;;;9.33;89.95;99209.28;5049530;28;19927;-76
2023/05/07 07:32:34;;;;;;;;;;;;;;;9.32;90.47;99209.53;5052147;28;20458;-76
2023/05/07 07:35:00;;;;;;;;;;;;;;;9.40;90.27;99212.66;5032008;28;19917;-76
2023/05/07 07:37:25;;;;;;;;;;;;;;;9.64;88.89;99210.78;5036725;28;20277;-76
2023/05/07 07:39:50;;;;;;;;;;;;;;;9.61;88.74;99211.25;5032739;28;19968;-76
2023/05/07 07:42:16;;;;;;;;;;;;;;;9.91;87.94;99208.44;5049937;28;19951;-76
2023/05/07 07:44:41;;;;;;;;;;;;;;;9.35;89.50;99207.19;5016287;28;19925;-76
2023/05/07 07:47:06;;;;;;;;;;;;;;;9.54;88.67;99199.91;5053113;28;19960;-76
2023/05/07 07:49:31;;;;;;;;;;;;;;;9.55;88.51;99207.66;5032413;28;19920;-76
2023/05/07 07:51:59;;;;;;;;;;;;;;;9.42;89.47;99210.56;5051961;28;20312;-76
2023/05/07 07:54:24;;;;;;;;;;;;;;;10.11;87.42;99217.66;5016148;28;19927;-77
2023/05/07 07:56:49;;;;;;;;;;;;;;;10.35;85.46;99208.53;5033018;28;19920;-77
2023/05/07 07:59:18;;;;;;;;;;;;;;;9.72;87.10;99215.75;5035045;28;19978;-76
2023/05/07 08:01:43;;;;;;;;;;;;;;;9.89;86.93;99223.84;5050707;28;19924;-77
2023/05/07 08:04:09;;;;;;;;;;;;;;;10.02;85.46;99224.41;5044300;28;20442;-76
2023/05/07 08:06:34;;;;;;;;;;;;;;;10.33;85.50;99221.31;5034175;28;19921;-77
2023/05/07 08:08:59;;;;;;;;;;;;;;;9.91;87.01;99229.75;5033042;28;19928;-76
2023/05/07 08:11:25;;;;;;;;;;;;;;;9.74;88.63;99227.00;5045082;28;19952;-76
2023/05/07 08:13:50;;;;;;;;;;;;;;;10.28;86.40;99223.91;5033169;28;19916;-77
2023/05/07 08:16:16;;;;;;;;;;;;;;;10.08;87.28;99217.31;5045800;28;19920;-76
2023/05/07 08:18:41;;;;;;;;;;;;;;;9.86;87.18;99222.47;5031620;28;20018;-76
2023/05/07 08:21:06;;;;;;;;;;;;;;;10.05;87.27;99217.75;5026382;28;19936;-76
2023/05/07 08:23:32;;;;;;;;;;;;;;;9.92;87.73;99229.50;5031630;28;20428;-76
2023/05/07 08:25:57;;;;;;;;;;;;;;;9.73;86.93;99226.19;5050628;28;20012;-77
2023/05/07 08:28:24;;;;;;;;;;;;;;;10.34;86.51;99228.28;5034841;28;20277;-76
2023/05/07 08:30:49;;;;;;;;;;;;;;;9.92;86.11;99234.84;5049990;28;21268;-76
2023/05/07 08:33:15;;;;;;;;;;;;;;;10.00;86.76;99231.84;5047899;28;19968;-76
2023/05/07 08:35:40;;;;;;;;;;;;;;;10.16;85.56;99224.97;5049910;28;19917;-76
2023/05/07 08:38:05;;;;;;;;;;;;;;;9.97;85.62;99234.97;5047653;28;19939;-76
2023/05/07 08:40:34;;;;;;;;;;;;;;;9.67;86.61;99234.31;5055180;28;19920;-76
2023/05/07 08:43:00;;;;;;;;;;;;;;;9.77;86.01;99229.19;5030859;28;19952;-76
2023/05/07 08:45:26;;;;;;;;;;;;;;;10.31;85.42;99225.28;5034256;28;19994;-76
2023/05/07 08:47:55;;;;;;;;;;;;;;;10.64;84.29;99233.38;5050594;28;20392;-76
2023/05/07 08:50:21;;;;;;;;;;;;;;;10.14;85.61;99241.22;5051616;28;19917;-77
2023/05/07 08:52:47;;;;;;;;;;;;;;;10.05;85.53;99229.25;5043870;28;19935;-76
2023/05/07 08:55:12;;;;;;;;;;;;;;;10.23;85.65;99234.47;5045489;28;19943;-76
2023/05/07 08:57:37;;;;;;;;;;;;;;;10.48;84.27;99234.16;5051538;28;20384;-76
2023/05/07 09:00:04;;;;;;;;;;;;;;;10.43;85.22;99242.88;5032666;28;19974;-76
2023/05/07 09:02:29;;;;;;;;;;;;;;;10.26;85.30;99247.34;5025199;28;19917;-76
2023/05/07 09:04:55;;;;;;;;;;;;;;;10.40;85.39;99251.34;5047426;28;19993;-76
2023/05/07 09:07:20;;;;;;;;;;;;;;;10.25;84.23;99245.72;5047768;28;19968;-76
2023/05/07 09:09:46;;;;;;;;;;;;;;;10.20;84.89;99256.25;5042038;28;19940;-76
2023/05/07 09:12:11;;;;;;;;;;;;;;;10.70;84.53;99247.63;5028185;28;19917;-76
2023/05/07 09:14:38;;;;;;;;;;;;;;;10.65;83.81;99250.19;5046876;28;19940;-76
2023/05/07 09:17:03;;;;;;;;;;;;;;;10.66;83.50;99251.84;5029168;28;19939;-76
2023/05/07 09:19:28;;;;;;;;;;;;;;;10.67;83.27;99248.09;5031923;28;20019;-76
2023/05/07 09:22:00;;;;;;;;;;;;;;;11.19;80.89;99246.88;5050363;28;19967;-76
2023/05/07 09:24:26;;;;;;;;;;;;;;;11.30;80.57;99259.38;5014877;28;19921;-76
2023/05/07 09:26:51;;;;;;;;;;;;;;;10.61;82.91;99257.91;5031995;28;19978;-76
2023/05/07 09:29:17;;;;;;;;;;;;;;;10.68;81.98;99249.75;5032140;28;19912;-76
2023/05/07 09:31:42;;;;;;;;;;;;;;;10.62;82.59;99248.00;5049499;28;19931;-76
2023/05/07 09:34:08;;;;;;;;;;;;;;;10.88;82.13;99250.09;5014596;28;19924;-76
2023/05/07 09:36:33;;;;;;;;;;;;;;;10.90;81.90;99245.34;5024050;28;20444;-76
2023/05/07 09:39:01;;;;;;;;;;;;;;;10.64;82.52;99260.06;5032614;28;19923;-77
2023/05/07 09:41:26;;;;;;;;;;;;;;;10.92;81.89;99253.91;5028797;28;19960;-77
2023/05/07 09:43:55;;;;;;;;;;;;;;;11.23;81.44;99258.72;5047271;28;20332;-77
2023/05/07 09:46:24;;;;;;;;;;;;;;;10.75;81.75;99258.38;5044722;28;19931;-77
2023/05/07 09:48:52;;;;;;;;;;;;;;;10.62;82.17;99259.50;5031243;28;20364;-77
2023/05/07 09:51:32;;;;;;;;;;;;;;;10.46;82.15;99255.72;5047609;28;19924;-77
2023/05/07 09:54:00;;;;;;;;;;;;;;;10.54;82.69;99255.38;5045179;28;19917;-77
2023/05/07 09:56:25;;;;;;;;;;;;;;;10.67;82.10;99256.94;5028691;28;19920;-77
2023/05/07 09:58:52;;;;;;;;;;;;;;;10.53;82.99;99253.72;5024177;28;20438;-77
2023/05/07 10:01:20;;;;;;;;;;;;;;;10.74;82.45;99256.78;5047925;28;19927;-77
2023/05/07 10:03:46;;;;;;;;;;;;;;;10.54;82.89;99252.69;5031887;28;19921;-77
2023/05/07 10:06:12;;;;;;;;;;;;;;;11.04;82.00;99255.47;5047006;28;20302;-77
2023/05/07 10:08:38;;;;;;;;;;;;;;;10.90;81.41;99261.38;5050497;28;19928;-77
2023/05/07 10:11:04;;;;;;;;;;;;;;;10.81;82.41;99258.25;5048944;28;19920;-77
2023/05/07 10:13:29;;;;;;;;;;;;;;;11.02;81.41;99254.09;5049836;28;20007;-77
2023/05/07 10:15:55;;;;;;;;;;;;;;;10.88;82.25;99250.09;5012941;28;19924;-77
2023/05/07 10:18:23;;;;;;;;;;;;;;;11.31;80.68;99248.41;5032283;28;19924;-77
2023/05/07 10:20:51;;;;;;;;;;;;;;;11.42;81.04;99261.97;5041713;28;20377;-77
2023/05/07 10:23:19;;;;;;;;;;;;;;;11.61;79.92;99255.31;5022038;28;20067;-77
2023/05/07 10:25:44;;;;;;;;;;;;;;;11.33;80.64;99259.69;5027383;28;19921;-77
2023/05/07 10:28:11;;;;;;;;;;;;;;;11.03;81.30;99250.38;5049839;28;19920;-77
2023/05/07 10:30:56;;;;;;;;;;;;;;;11.20;80.59;99251.97;5022770;28;20021;-77
2023/05/07 10:33:23;;;;;;;;;;;;;;;11.36;80.09;99250.38;5049426;28;19924;-77
2023/05/07 10:35:49;;;;;;;;;;;;;;;11.02;81.75;99254.09;5012817;28;19929;-77
2023/05/07 10:38:14;;;;;;;;;;;;;;;10.96;81.77;99257.72;5034429;28;19939;-77
2023/05/07 10:40:39;;;;;;;;;;;;;;;10.63;82.49;99261.13;5054312;28;19925;-77
2023/05/07 10:43:05;;;;;;;;;;;;;;;10.76;82.59;99257.34;5036089;28;19931;-76
2023/05/07 10:45:31;;;;;;;;;;;;;;;11.05;81.85;99264.31;5054547;28;19929;-77
2023/05/07 10:48:16;;;;;;;;;;;;;;;11.46;80.68;99261.22;5048948;28;19921;-77
2023/05/07 10:50:42;;;;;;;;;;;;;;;11.26;80.83;99266.25;5050001;28;19921;-77
2023/05/07 10:53:16;;;;;;;;;;;;;;;11.28;80.43;99267.63;5041057;28;19920;-77
2023/05/07 10:55:41;;;;;;;;;;;;;;;11.68;80.38;99264.00;5030434;28;20434;-77
2023/05/07 10:58:26;;;;;;;;;;;;;;;11.45;80.03;99278.31;5036415;28;20008;-77
2023/05/07 11:00:55;;;;;;;;;;;;;;;11.92;79.70;99268.09;5026342;28;19924;-78
2023/05/07 11:03:22;;;;;;;;;;;;;;;12.13;78.83;99269.97;5044073;28;19950;-78
2023/05/07 11:05:48;;;;;;;;;;;;;;;11.96;78.85;99266.53;5046944;28;20288;-78
2023/05/07 11:08:14;;;;;;;;;;;;;;;11.84;78.73;99268.50;5033610;28;19917;-78
2023/05/07 11:10:58;;;;;;;;;;;;;;;11.64;79.30;99279.66;5031759;28;20376;-77
2023/05/07 11:13:43;;;;;;;;;;;;;;;11.55;78.91;99270.47;5032489;28;20384;-77
2023/05/07 11:16:22;;;;;;;;;;;;;;;11.93;78.33;99267.03;5030396;28;19947;-77
2023/05/07 11:18:52;;;;;;;;;;;;;;;11.53;79.90;99264.53;5031459;28;19920;-77
2023/05/07 11:21:37;;;;;;;;;;;;;;;11.80;79.45;99264.69;5030782;28;19928;-77
2023/05/07 11:24:03;;;;;;;;;;;;;;;11.76;79.83;99266.25;5050420;28;20411;-77
2023/05/07 11:26:30;;;;;;;;;;;;;;;12.13;77.98;99263.81;5049966;28;19921;-77
2023/05/07 11:28:56;;;;;;;;;;;;;;;12.33;78.28;99269.41;5040026;28;20385;-77
2023/05/07 11:31:23;;;;;;;;;;;;;;;12.12;78.67;99267.56;5030769;28;19963;-77
2023/05/07 11:33:48;;;;;;;;;;;;;;;12.31;78.37;99258.16;5049702;28;19920;-77
2023/05/07 11:36:14;;;;;;;;;;;;;;;12.43;77.62;99261.50;5051626;28;19943;-77
2023/05/07 11:38:39;;;;;;;;;;;;;;;11.94;77.78;99276.69;5027289;28;19924;-77
2023/05/07 11:41:05;;;;;;;;;;;;;;;12.18;78.70;99272.72;5030303;28;19921;-78
2023/05/07 11:43:30;;;;;;;;;;;;;;;12.20;77.90;99272.47;5025053;28;19924;-77
2023/05/07 11:46:04;;;;;;;;;;;;;;;12.02;78.07;99271.72;5047258;28;19931;-77
2023/05/07 11:48:30;;;;;;;;;;;;;;;12.03;79.21;99273.31;5042465;28;20470;-77
2023/05/07 11:50:58;;;;;;;;;;;;;;;12.57;78.39;99273.47;5044513;28;19921;-77
2023/05/07 11:53:26;;;;;;;;;;;;;;;12.40;77.21;99259.34;5048577;28;20388;-77
2023/05/07 11:55:52;;;;;;;;;;;;;;;12.37;77.45;99259.84;5033049;28;20016;-77
2023/05/07 11:58:20;;;;;;;;;;;;;;;12.84;75.91;99274.31;5048635;28;20629;-77
2023/05/07 12:00:49;;;;;;;;;;;;;;;13.42;75.05;99266.28;5031055;28;20334;-77
2023/05/07 12:03:14;;;;;;;;;;;;;;;13.25;75.17;99267.47;5031469;28;20441;-77
2023/05/07 12:05:41;;;;;;;;;;;;;;;13.18;74.53;99261.50;5026564;28;19924;-77
2023/05/07 12:08:06;;;;;;;;;;;;;;;12.67;76.10;99262.84;5029590;28;19929;-77
2023/05/07 12:10:32;;;;;;;;;;;;;;;12.64;75.76;99258.84;5042600;28;19929;-77
2023/05/07 12:12:57;;;;;;;;;;;;;;;12.31;76.33;99260.84;5043185;28;19971;-77
2023/05/07 12:15:22;;;;;;;;;;;;;;;12.17;75.94;99259.56;5039183;28;19972;-77
2023/05/07 12:17:48;;;;;;;;;;;;;;;12.28;77.00;99267.50;5020610;28;19924;-77
2023/05/07 12:20:14;;;;;;;;;;;;;;;12.27;77.23;99262.41;5026311;28;19928;-77
2023/05/07 12:22:40;;;;;;;;;;;;;;;12.75;76.04;99267.78;5028964;28;19973;-77
2023/05/07 12:25:06;;;;;;;;;;;;;;;12.59;76.31;99265.97;5043448;28;19927;-77
2023/05/07 12:27:31;;;;;;;;;;;;;;;12.46;76.31;99252.97;5046491;28;19917;-77
2023/05/07 12:29:57;;;;;;;;;;;;;;;12.51;76.70;99255.72;5045944;28;21041;-77
2023/05/07 12:32:22;;;;;;;;;;;;;;;12.83;75.45;99261.97;5048310;28;19921;-78
2023/05/07 12:34:51;;;;;;;;;;;;;;;12.85;74.56;99265.19;5045891;28;19929;-78
2023/05/07 12:37:16;;;;;;;;;;;;;;;13.00;75.45;99269.88;5039693;28;21589;-77
2023/05/07 12:39:48;;;;;;;;;;;;;;;13.06;74.17;99269.72;5019468;28;19932;-78
2023/05/07 12:42:15;;;;;;;;;;;;;;;13.13;75.17;99272.19;5042775;28;19917;-78
2023/05/07 12:44:41;;;;;;;;;;;;;;;12.61;76.14;99266.53;5046578;28;20289;-77